PWSweather.com
Personal Weather Stations
Station Observations
TARRYHILL
Tarrytown, NY 10591

Tarrytown, NY 10591

Lat: 41.05185, Lon: -73.85296

Elevation: 341

Station Type: Davis Vantage Vue

www.tarrytownnyweather.com

High Low Average
Temperature 47.2°F8.4°C 46.9°F8.3°C 47.1°F8.4°C
Dew Point 41.7°F5.4°C 41.1°F5.1°C 41.3°F5.2°C
Winds 0.6 mph 1.0 kmh Calm Calm Calm SECalm SE
Wind Gusts 3.0 mph4.8 kmh -- 1.0 mph1.6 kmh
Humidity 81% 80% 80%
Pressure 29.86 in1011.2 mb 29.85 in1010.8 mb -
Precipitation 0.00 in0.0 mm - -
Hour Temp Dew Point Humidity Winds Wind Gusts Pressure Precip Precip Rate Daily Precip Total
12:00 AM 47.9°F8.8°C 41.0°F5.0°C 77% Calm Calm -- 29.89 in1012.2 mb 0.00 in0.0 mm 0.00 in/hr0.0 mm/hr 0.00 in0.0 mm
12:10 AM 47.5°F8.6°C 41.0°F5.0°C 78% Calm Calm -- 29.88 in1011.9 mb 0.00 in0.0 mm 0.00 in/hr0.0 mm/hr 0.00 in0.0 mm
12:20 AM 47.5°F8.6°C 41.0°F5.0°C 78% 0.6 mph SE1.0 kmh SE 1.0 mph1.6 kmh 29.89 in1012.2 mb 0.00 in0.0 mm 0.00 in/hr0.0 mm/hr 0.00 in0.0 mm
12:30 AM 47.6°F8.7°C 41.1°F5.1°C 78% Calm Calm 1.0 mph1.6 kmh 29.88 in1011.9 mb 0.00 in0.0 mm 0.00 in/hr0.0 mm/hr 0.00 in0.0 mm
12:40 AM 47.5°F8.6°C 41.0°F5.0°C 78% Calm Calm -- 29.88 in1011.9 mb 0.00 in0.0 mm 0.00 in/hr0.0 mm/hr 0.00 in0.0 mm
12:50 AM 47.2°F8.4°C 41.0°F5.0°C 79% 0.1 mph S0.2 kmh S 1.0 mph1.6 kmh 29.87 in1011.5 mb 0.00 in0.0 mm 0.00 in/hr0.0 mm/hr 0.00 in0.0 mm
01:00 AM 46.9°F8.3°C 41.1°F5.1°C 80% 0.6 mph SSE1.0 kmh SSE 3.0 mph4.8 kmh 29.86 in1011.2 mb 0.00 in0.0 mm 0.00 in/hr0.0 mm/hr 0.00 in0.0 mm
01:10 AM 47.1°F8.4°C 41.2°F5.1°C 80% Calm Calm -- 29.86 in1011.2 mb 0.00 in0.0 mm 0.00 in/hr0.0 mm/hr 0.00 in0.0 mm
01:20 AM 47.2°F8.4°C 41.3°F5.2°C 80% Calm Calm -- 29.86 in1011.2 mb 0.00 in0.0 mm 0.00 in/hr0.0 mm/hr 0.00 in0.0 mm
01:30 AM 47.2°F8.4°C 41.7°F5.4°C 81% Calm Calm 1.0 mph1.6 kmh 29.85 in1010.8 mb 0.00 in0.0 mm 0.00 in/hr0.0 mm/hr 0.00 in0.0 mm
01:40 AM 47.6°F8.7°C 41.7°F5.4°C 80% 0.6 mph SSE1.0 kmh SSE 1.0 mph1.6 kmh 29.85 in1010.8 mb 0.00 in0.0 mm 0.00 in/hr0.0 mm/hr 0.00 in0.0 mm
01:50 AM 47.6°F8.7°C 41.7°F5.4°C 80% Calm Calm 1.0 mph1.6 kmh 29.84 in1010.5 mb 0.00 in0.0 mm 0.00 in/hr0.0 mm/hr 0.00 in0.0 mm
02:00 AM 47.4°F8.6°C 41.9°F5.5°C 81% 0.2 mph SW0.3 kmh SW -- 29.84 in1010.5 mb 0.00 in0.0 mm 0.00 in/hr0.0 mm/hr 0.00 in0.0 mm
02:10 AM 47.6°F8.7°C 42.0°F5.6°C 81% 2.1 mph SE3.4 kmh SE 4.0 mph6.4 kmh 29.84 in1010.5 mb 0.00 in0.0 mm 0.00 in/hr0.0 mm/hr 0.00 in0.0 mm
02:20 AM 47.8°F8.8°C 42.2°F5.7°C 81% 0.1 mph SW0.2 kmh SW 2.0 mph3.2 kmh 29.83 in1010.2 mb 0.00 in0.0 mm 0.00 in/hr0.0 mm/hr 0.00 in0.0 mm
02:30 AM 47.7°F8.7°C 42.5°F5.8°C 82% 0.6 mph SSE1.0 kmh SSE -- 29.83 in1010.2 mb 0.00 in0.0 mm 0.00 in/hr0.0 mm/hr 0.00 in0.0 mm
02:40 AM 47.5°F8.6°C 42.3°F5.7°C 82% 0.3 mph SE0.5 kmh SE 1.0 mph1.6 kmh 29.82 in1009.8 mb 0.00 in0.0 mm 0.00 in/hr0.0 mm/hr 0.00 in0.0 mm
02:50 AM 47.5°F8.6°C 42.3°F5.7°C 82% Calm Calm 1.0 mph1.6 kmh 29.82 in1009.8 mb 0.00 in0.0 mm 0.00 in/hr0.0 mm/hr 0.00 in0.0 mm
03:00 AM 47.3°F8.5°C 42.4°F5.8°C 83% 0.2 mph S0.3 kmh S 1.0 mph1.6 kmh 29.82 in1009.8 mb 0.00 in0.0 mm 0.00 in/hr0.0 mm/hr 0.00 in0.0 mm
03:10 AM 47.4°F8.6°C 42.5°F5.8°C 83% 0.3 mph S0.5 kmh S 1.0 mph1.6 kmh 29.81 in1009.5 mb 0.00 in0.0 mm 0.00 in/hr0.0 mm/hr 0.00 in0.0 mm
03:20 AM 47.3°F8.5°C 42.7°F5.9°C 84% 0.6 mph S1.0 kmh S 2.0 mph3.2 kmh 29.80 in1009.1 mb 0.00 in0.0 mm 0.00 in/hr0.0 mm/hr 0.00 in0.0 mm
03:30 AM 47.4°F8.6°C 42.8°F6.0°C 84% 0.9 mph SSW1.4 kmh SSW 3.0 mph4.8 kmh 29.80 in1009.1 mb 0.00 in0.0 mm 0.00 in/hr0.0 mm/hr 0.00 in0.0 mm
03:40 AM 47.5°F8.6°C 42.9°F6.1°C 84% 1.2 mph SW1.9 kmh SW 5.0 mph8.0 kmh 29.80 in1009.1 mb 0.00 in0.0 mm 0.00 in/hr0.0 mm/hr 0.00 in0.0 mm
03:50 AM 47.6°F8.7°C 43.0°F6.1°C 84% 0.9 mph SW1.4 kmh SW 2.0 mph3.2 kmh 29.80 in1009.1 mb 0.00 in0.0 mm 0.00 in/hr0.0 mm/hr 0.00 in0.0 mm
04:00 AM 47.6°F8.7°C 43.0°F6.1°C 84% 0.4 mph WSW0.6 kmh WSW 1.0 mph1.6 kmh 29.80 in1009.1 mb 0.00 in0.0 mm 0.00 in/hr0.0 mm/hr 0.00 in0.0 mm
04:10 AM 47.4°F8.6°C 43.1°F6.2°C 85% 0.2 mph S0.3 kmh S 1.0 mph1.6 kmh 29.79 in1008.8 mb 0.00 in0.0 mm 0.00 in/hr0.0 mm/hr 0.00 in0.0 mm
04:20 AM 47.5°F8.6°C 43.2°F6.2°C 85% 0.1 mph SW0.2 kmh SW 1.0 mph1.6 kmh 29.79 in1008.8 mb 0.00 in0.0 mm 0.00 in/hr0.0 mm/hr 0.00 in0.0 mm
04:30 AM 47.6°F8.7°C 43.3°F6.3°C 85% 1.8 mph S2.9 kmh S 3.0 mph4.8 kmh 29.79 in1008.8 mb 0.00 in0.0 mm 0.00 in/hr0.0 mm/hr 0.00 in0.0 mm
04:40 AM 47.9°F8.8°C 43.6°F6.4°C 85% 1.3 mph SW2.1 kmh SW 2.0 mph3.2 kmh 29.78 in1008.5 mb 0.00 in0.0 mm 0.00 in/hr0.0 mm/hr 0.00 in0.0 mm
04:50 AM 48.0°F8.9°C 43.4°F6.3°C 84% 1.7 mph WSW2.7 kmh WSW 3.0 mph4.8 kmh 29.78 in1008.5 mb 0.00 in0.0 mm 0.00 in/hr0.0 mm/hr 0.00 in0.0 mm
05:00 AM 48.1°F8.9°C 43.5°F6.4°C 84% 1.4 mph SE2.3 kmh SE 2.0 mph3.2 kmh 29.78 in1008.5 mb 0.00 in0.0 mm 0.00 in/hr0.0 mm/hr 0.00 in0.0 mm
05:10 AM 48.3°F9.1°C 43.6°F6.4°C 84% 0.5 mph S0.8 kmh S 1.0 mph1.6 kmh 29.78 in1008.5 mb 0.00 in0.0 mm 0.00 in/hr0.0 mm/hr 0.00 in0.0 mm
05:20 AM 48.3°F9.1°C 43.7°F6.5°C 84% 0.6 mph SE1.0 kmh SE 1.0 mph1.6 kmh 29.77 in1008.1 mb 0.00 in0.0 mm 0.00 in/hr0.0 mm/hr 0.00 in0.0 mm
05:30 AM 48.3°F9.1°C 43.7°F6.5°C 84% 0.5 mph SE0.8 kmh SE 2.0 mph3.2 kmh 29.77 in1008.1 mb 0.00 in0.0 mm 0.00 in/hr0.0 mm/hr 0.00 in0.0 mm
05:40 AM 48.3°F9.1°C 43.7°F6.5°C 84% 1.3 mph SSE2.1 kmh SSE 3.0 mph4.8 kmh 29.77 in1008.1 mb 0.00 in0.0 mm 0.00 in/hr0.0 mm/hr 0.00 in0.0 mm
05:50 AM 48.4°F9.1°C 43.8°F6.6°C 84% 1.6 mph S2.6 kmh S 2.0 mph3.2 kmh 29.77 in1008.1 mb 0.00 in0.0 mm 0.00 in/hr0.0 mm/hr 0.00 in0.0 mm
06:00 AM 48.5°F9.2°C 43.9°F6.6°C 84% 1.0 mph SE1.6 kmh SE 4.0 mph6.4 kmh 29.76 in1007.8 mb 0.00 in0.0 mm 0.00 in/hr0.0 mm/hr 0.00 in0.0 mm
06:10 AM 48.5°F9.2°C 43.9°F6.6°C 84% 1.7 mph S2.7 kmh S 5.0 mph8.0 kmh 29.76 in1007.8 mb 0.00 in0.0 mm 0.00 in/hr0.0 mm/hr 0.00 in0.0 mm
06:20 AM 48.8°F9.3°C 44.2°F6.8°C 84% 1.8 mph SE2.9 kmh SE 3.0 mph4.8 kmh 29.77 in1008.1 mb 0.00 in0.0 mm 0.00 in/hr0.0 mm/hr 0.00 in0.0 mm
06:30 AM 48.9°F9.4°C 44.3°F6.8°C 84% 1.8 mph SSE2.9 kmh SSE 2.0 mph3.2 kmh 29.76 in1007.8 mb 0.00 in0.0 mm 0.00 in/hr0.0 mm/hr 0.00 in0.0 mm
06:40 AM 49.1°F9.5°C 44.5°F6.9°C 84% 2.6 mph SSW4.2 kmh SSW 3.0 mph4.8 kmh 29.76 in1007.8 mb 0.00 in0.0 mm 0.00 in/hr0.0 mm/hr 0.00 in0.0 mm
06:50 AM 49.2°F9.6°C 44.6°F7.0°C 84% 2.5 mph SSW4.0 kmh SSW 5.0 mph8.0 kmh 29.76 in1007.8 mb 0.00 in0.0 mm 0.00 in/hr0.0 mm/hr 0.00 in0.0 mm
07:00 AM 49.5°F9.7°C 44.9°F7.2°C 84% 3.1 mph SSE5.0 kmh SSE 5.0 mph8.0 kmh 29.76 in1007.8 mb 0.00 in0.0 mm 0.00 in/hr0.0 mm/hr 0.00 in0.0 mm
07:10 AM 49.9°F9.9°C 45.3°F7.4°C 84% 3.9 mph ESE6.3 kmh ESE 6.0 mph9.7 kmh 29.76 in1007.8 mb 0.00 in0.0 mm 0.00 in/hr0.0 mm/hr 0.00 in0.0 mm
07:20 AM 50.1°F10.1°C 45.5°F7.5°C 84% 1.0 mph SW1.6 kmh SW 3.0 mph4.8 kmh 29.75 in1007.5 mb 0.00 in0.0 mm 0.00 in/hr0.0 mm/hr 0.00 in0.0 mm
07:30 AM 50.5°F10.3°C 45.5°F7.5°C 83% 1.6 mph SW2.6 kmh SW 4.0 mph6.4 kmh 29.75 in1007.5 mb 0.00 in0.0 mm 0.00 in/hr0.0 mm/hr 0.00 in0.0 mm
07:40 AM 50.9°F10.5°C 45.9°F7.7°C 83% 2.9 mph SW4.7 kmh SW 5.0 mph8.0 kmh 29.75 in1007.5 mb 0.00 in0.0 mm 0.00 in/hr0.0 mm/hr 0.00 in0.0 mm
07:50 AM 51.3°F10.7°C 46.0°F7.8°C 82% 3.4 mph S5.5 kmh S 6.0 mph9.7 kmh 29.74 in1007.1 mb 0.00 in0.0 mm 0.00 in/hr0.0 mm/hr 0.00 in0.0 mm
08:00 AM 51.5°F10.8°C 45.9°F7.7°C 81% 4.7 mph SSE7.6 kmh SSE 10.0 mph16.1 kmh 29.74 in1007.1 mb 0.00 in0.0 mm 0.00 in/hr0.0 mm/hr 0.00 in0.0 mm
08:10 AM 51.6°F10.9°C 46.0°F7.8°C 81% 4.1 mph SSW6.6 kmh SSW 8.0 mph12.9 kmh 29.74 in1007.1 mb 0.00 in0.0 mm 0.00 in/hr0.0 mm/hr 0.00 in0.0 mm
08:20 AM 52.0°F11.1°C 46.0°F7.8°C 80% 2.0 mph WSW3.2 kmh WSW 2.0 mph3.2 kmh 29.74 in1007.1 mb 0.00 in0.0 mm 0.00 in/hr0.0 mm/hr 0.00 in0.0 mm
08:30 AM 52.5°F11.4°C 46.1°F7.8°C 79% 2.2 mph SW3.5 kmh SW 4.0 mph6.4 kmh 29.73 in1006.8 mb 0.00 in0.0 mm 0.00 in/hr0.0 mm/hr 0.00 in0.0 mm
08:40 AM 53.4°F11.9°C 46.7°F8.2°C 78% 1.7 mph SE2.7 kmh SE 3.0 mph4.8 kmh 29.72 in1006.4 mb 0.00 in0.0 mm 0.00 in/hr0.0 mm/hr 0.00 in0.0 mm
08:50 AM 54.2°F12.3°C 46.8°F8.2°C 76% 2.7 mph S4.3 kmh S 5.0 mph8.0 kmh 29.73 in1006.8 mb 0.00 in0.0 mm 0.00 in/hr0.0 mm/hr 0.00 in0.0 mm
09:00 AM 54.4°F12.4°C 46.6°F8.1°C 75% 3.0 mph SSW4.8 kmh SSW 5.0 mph8.0 kmh 29.72 in1006.4 mb 0.00 in0.0 mm 0.00 in/hr0.0 mm/hr 0.00 in0.0 mm
09:10 AM 55.4°F13.0°C 47.2°F8.4°C 74% 4.1 mph SW6.6 kmh SW 7.0 mph11.3 kmh 29.71 in1006.1 mb 0.00 in0.0 mm 0.00 in/hr0.0 mm/hr 0.00 in0.0 mm
09:20 AM 55.9°F13.3°C 46.6°F8.1°C 71% 4.1 mph SW6.6 kmh SW 6.0 mph9.7 kmh 29.71 in1006.1 mb 0.00 in0.0 mm 0.00 in/hr0.0 mm/hr 0.00 in0.0 mm
09:30 AM 56.5°F13.6°C 46.8°F8.2°C 70% 4.2 mph W6.8 kmh W 9.0 mph14.5 kmh 29.70 in1005.8 mb 0.00 in0.0 mm 0.00 in/hr0.0 mm/hr 0.00 in0.0 mm
09:40 AM 57.6°F14.2°C 46.7°F8.2°C 67% 2.9 mph W4.7 kmh W 5.0 mph8.0 kmh 29.70 in1005.8 mb 0.00 in0.0 mm 0.00 in/hr0.0 mm/hr 0.00 in0.0 mm
09:50 AM 58.7°F14.8°C 46.5°F8.1°C 64% 3.6 mph SSW5.8 kmh SSW 8.0 mph12.9 kmh 29.70 in1005.8 mb 0.00 in0.0 mm 0.00 in/hr0.0 mm/hr 0.00 in0.0 mm
10:00 AM 59.5°F15.3°C 46.9°F8.3°C 63% 4.5 mph S7.2 kmh S 9.0 mph14.5 kmh 29.69 in1005.4 mb 0.00 in0.0 mm 0.00 in/hr0.0 mm/hr 0.00 in0.0 mm
10:10 AM 60.4°F15.8°C 46.4°F8.0°C 60% 5.0 mph SW8.0 kmh SW 5.0 mph8.0 kmh 29.69 in1005.4 mb 0.00 in0.0 mm 0.00 in/hr0.0 mm/hr 0.00 in0.0 mm
10:20 AM 60.7°F15.9°C 46.3°F7.9°C 59% 6.4 mph SE10.3 kmh SE 14.0 mph22.5 kmh 29.69 in1005.4 mb 0.00 in0.0 mm 0.00 in/hr0.0 mm/hr 0.00 in0.0 mm
10:30 AM 60.8°F16.0°C 45.9°F7.7°C 58% 5.1 mph S8.2 kmh S 6.0 mph9.7 kmh 29.69 in1005.4 mb 0.00 in0.0 mm 0.00 in/hr0.0 mm/hr 0.00 in0.0 mm
10:40 AM 60.7°F15.9°C 45.8°F7.7°C 58% 8.2 mph S13.2 kmh S 13.0 mph20.9 kmh 29.68 in1005.1 mb 0.00 in0.0 mm 0.00 in/hr0.0 mm/hr 0.00 in0.0 mm
10:50 AM 60.5°F15.8°C 45.6°F7.6°C 58% 6.0 mph SW9.7 kmh SW 11.0 mph17.7 kmh 29.68 in1005.1 mb 0.00 in0.0 mm 0.00 in/hr0.0 mm/hr 0.00 in0.0 mm
11:00 AM 60.9°F16.1°C 46.0°F7.8°C 58% 6.6 mph S10.6 kmh S 10.0 mph16.1 kmh 29.67 in1004.7 mb 0.00 in0.0 mm 0.00 in/hr0.0 mm/hr 0.00 in0.0 mm
11:10 AM 61.3°F16.3°C 46.4°F8.0°C 58% 5.5 mph SW8.9 kmh SW 8.0 mph12.9 kmh 29.67 in1004.7 mb 0.00 in0.0 mm 0.00 in/hr0.0 mm/hr 0.00 in0.0 mm
11:20 AM 62.1°F16.7°C 46.2°F7.9°C 56% 6.0 mph SSW9.7 kmh SSW 11.0 mph17.7 kmh 29.66 in1004.4 mb 0.00 in0.0 mm 0.00 in/hr0.0 mm/hr 0.00 in0.0 mm
11:30 AM 63.3°F17.4°C 47.3°F8.5°C 56% 5.7 mph S9.2 kmh S 12.0 mph19.3 kmh 29.66 in1004.4 mb 0.00 in0.0 mm 0.00 in/hr0.0 mm/hr 0.00 in0.0 mm
11:40 AM 63.5°F17.5°C 47.0°F8.3°C 55% 9.3 mph SE15.0 kmh SE 16.0 mph25.7 kmh 29.65 in1004.1 mb 0.00 in0.0 mm 0.00 in/hr0.0 mm/hr 0.00 in0.0 mm
11:50 AM 63.7°F17.6°C 46.2°F7.9°C 53% 7.9 mph WSW12.7 kmh WSW 14.0 mph22.5 kmh 29.65 in1004.1 mb 0.00 in0.0 mm 0.00 in/hr0.0 mm/hr 0.00 in0.0 mm
12:00 PM 64.3°F17.9°C 46.8°F8.2°C 53% 6.4 mph ESE10.3 kmh ESE 10.0 mph16.1 kmh 29.65 in1004.1 mb 0.00 in0.0 mm 0.00 in/hr0.0 mm/hr 0.00 in0.0 mm
12:10 PM 64.8°F18.2°C 47.2°F8.4°C 53% 4.0 mph SSE6.4 kmh SSE 8.0 mph12.9 kmh 29.64 in1003.7 mb 0.00 in0.0 mm 0.00 in/hr0.0 mm/hr 0.00 in0.0 mm
12:20 PM 65.1°F18.4°C 47.0°F8.3°C 52% 6.1 mph SW9.8 kmh SW 12.0 mph19.3 kmh 29.63 in1003.4 mb 0.00 in0.0 mm 0.00 in/hr0.0 mm/hr 0.00 in0.0 mm
12:30 PM 65.5°F18.6°C 47.4°F8.6°C 52% 4.1 mph SW6.6 kmh SW 7.0 mph11.3 kmh 29.63 in1003.4 mb 0.00 in0.0 mm 0.00 in/hr0.0 mm/hr 0.00 in0.0 mm
12:40 PM 66.6°F19.2°C 47.4°F8.6°C 50% 3.1 mph SE5.0 kmh SE 4.0 mph6.4 kmh 29.62 in1003.0 mb 0.00 in0.0 mm 0.00 in/hr0.0 mm/hr 0.00 in0.0 mm
12:50 PM 66.8°F19.3°C 47.6°F8.7°C 50% 5.2 mph SE8.4 kmh SE 12.0 mph19.3 kmh 29.62 in1003.0 mb 0.00 in0.0 mm 0.00 in/hr0.0 mm/hr 0.00 in0.0 mm
01:00 PM 67.3°F19.6°C 47.5°F8.6°C 49% 8.0 mph SW12.9 kmh SW 12.0 mph19.3 kmh 29.62 in1003.0 mb 0.00 in0.0 mm 0.00 in/hr0.0 mm/hr 0.00 in0.0 mm
01:10 PM 68.2°F20.1°C 47.2°F8.4°C 47% 6.5 mph S10.5 kmh S 11.0 mph17.7 kmh 29.61 in1002.7 mb 0.00 in0.0 mm 0.00 in/hr0.0 mm/hr 0.00 in0.0 mm
01:20 PM 68.6°F20.3°C 47.6°F8.7°C 47% 2.9 mph S4.7 kmh S 5.0 mph8.0 kmh 29.60 in1002.4 mb 0.00 in0.0 mm 0.00 in/hr0.0 mm/hr 0.00 in0.0 mm
01:30 PM 69.0°F20.6°C 47.9°F8.8°C 47% 4.2 mph E6.8 kmh E 9.0 mph14.5 kmh 29.60 in1002.4 mb 0.00 in0.0 mm 0.00 in/hr0.0 mm/hr 0.00 in0.0 mm
01:40 PM 69.4°F20.8°C 47.7°F8.7°C 46% 8.1 mph NNW13.0 kmh NNW 16.0 mph25.7 kmh 29.60 in1002.4 mb 0.00 in0.0 mm 0.00 in/hr0.0 mm/hr 0.00 in0.0 mm
01:50 PM 68.5°F20.3°C 47.5°F8.6°C 47% 4.9 mph WNW7.9 kmh WNW 9.0 mph14.5 kmh 29.59 in1002.0 mb 0.00 in0.0 mm 0.00 in/hr0.0 mm/hr 0.00 in0.0 mm
02:00 PM 69.1°F20.6°C 48.0°F8.9°C 47% 4.8 mph WSW7.7 kmh WSW 9.0 mph14.5 kmh 29.59 in1002.0 mb 0.00 in0.0 mm 0.00 in/hr0.0 mm/hr 0.00 in0.0 mm
02:10 PM 68.3°F20.2°C 47.3°F8.5°C 47% 7.8 mph S12.6 kmh S 13.0 mph20.9 kmh 29.59 in1002.0 mb 0.00 in0.0 mm 0.00 in/hr0.0 mm/hr 0.00 in0.0 mm
02:20 PM 67.6°F19.8°C 47.8°F8.8°C 49% 4.6 mph WSW7.4 kmh WSW 11.0 mph17.7 kmh 29.59 in1002.0 mb 0.00 in0.0 mm 0.00 in/hr0.0 mm/hr 0.00 in0.0 mm
02:30 PM 67.4°F19.7°C 48.1°F8.9°C 50% 3.6 mph E5.8 kmh E 5.0 mph8.0 kmh 29.58 in1001.7 mb 0.00 in0.0 mm 0.00 in/hr0.0 mm/hr 0.00 in0.0 mm
02:40 PM 67.8°F19.9°C 48.4°F9.1°C 50% 3.4 mph WSW5.5 kmh WSW 4.0 mph6.4 kmh 29.58 in1001.7 mb 0.00 in0.0 mm 0.00 in/hr0.0 mm/hr 0.00 in0.0 mm
02:50 PM 67.8°F19.9°C 49.0°F9.4°C 51% 2.6 mph E4.2 kmh E 3.0 mph4.8 kmh 29.57 in1001.4 mb 0.00 in0.0 mm 0.00 in/hr0.0 mm/hr 0.00 in0.0 mm
03:00 PM 68.3°F20.2°C 48.9°F9.4°C 50% 3.4 mph SSE5.5 kmh SSE 6.0 mph9.7 kmh 29.57 in1001.4 mb 0.00 in0.0 mm 0.00 in/hr0.0 mm/hr 0.00 in0.0 mm
03:10 PM 67.8°F19.9°C 49.0°F9.4°C 51% 2.0 mph WSW3.2 kmh WSW 2.0 mph3.2 kmh 29.57 in1001.4 mb 0.00 in0.0 mm 0.00 in/hr0.0 mm/hr 0.00 in0.0 mm
03:20 PM 68.2°F20.1°C 49.4°F9.7°C 51% 4.1 mph SE6.6 kmh SE 7.0 mph11.3 kmh 29.57 in1001.4 mb 0.00 in0.0 mm 0.00 in/hr0.0 mm/hr 0.00 in0.0 mm
03:30 PM 68.7°F20.4°C 48.8°F9.3°C 49% 1.4 mph W2.3 kmh W 3.0 mph4.8 kmh 29.56 in1001.0 mb 0.00 in0.0 mm 0.00 in/hr0.0 mm/hr 0.00 in0.0 mm
03:40 PM 68.6°F20.3°C 48.2°F9.0°C 48% 2.8 mph SW4.5 kmh SW 5.0 mph8.0 kmh 29.56 in1001.0 mb 0.00 in0.0 mm 0.00 in/hr0.0 mm/hr 0.00 in0.0 mm
03:50 PM 67.9°F19.9°C 48.6°F9.2°C 50% 2.1 mph S3.4 kmh S 4.0 mph6.4 kmh 29.55 in1000.7 mb 0.00 in0.0 mm 0.00 in/hr0.0 mm/hr 0.00 in0.0 mm
04:00 PM 67.7°F19.8°C 48.9°F9.4°C 51% 3.9 mph ESE6.3 kmh ESE 6.0 mph9.7 kmh 29.55 in1000.7 mb 0.00 in0.0 mm 0.00 in/hr0.0 mm/hr 0.00 in0.0 mm
04:10 PM 67.7°F19.8°C 49.4°F9.7°C 52% 0.4 mph S0.6 kmh S 3.0 mph4.8 kmh 29.55 in1000.7 mb 0.00 in0.0 mm 0.00 in/hr0.0 mm/hr 0.00 in0.0 mm
04:20 PM 68.0°F20.0°C 49.2°F9.6°C 51% 2.3 mph SSW3.7 kmh SSW 7.0 mph11.3 kmh 29.55 in1000.7 mb 0.00 in0.0 mm 0.00 in/hr0.0 mm/hr 0.00 in0.0 mm
04:30 PM 67.6°F19.8°C 48.8°F9.3°C 51% 3.3 mph SW5.3 kmh SW 4.0 mph6.4 kmh 29.56 in1001.0 mb 0.00 in0.0 mm 0.00 in/hr0.0 mm/hr 0.00 in0.0 mm
04:40 PM 67.4°F19.7°C 49.7°F9.8°C 53% 2.4 mph SSW3.9 kmh SSW 4.0 mph6.4 kmh 29.56 in1001.0 mb 0.00 in0.0 mm 0.00 in/hr0.0 mm/hr 0.00 in0.0 mm
04:50 PM 66.8°F19.3°C 51.1°F10.6°C 57% 0.7 mph SE1.1 kmh SE 2.0 mph3.2 kmh 29.56 in1001.0 mb 0.00 in0.0 mm 0.00 in/hr0.0 mm/hr 0.00 in0.0 mm
05:00 PM 65.2°F18.4°C 52.3°F11.3°C 63% 0.6 mph S1.0 kmh S 3.0 mph4.8 kmh 29.56 in1001.0 mb 0.01 in0.3 mm 0.01 in/hr0.3 mm/hr 0.01 in0.3 mm
05:10 PM 63.3°F17.4°C 52.9°F11.6°C 69% Calm Calm 1.0 mph1.6 kmh 29.56 in1001.0 mb 0.02 in0.5 mm 0.12 in/hr3.0 mm/hr 0.02 in0.5 mm
05:20 PM 61.7°F16.5°C 53.7°F12.1°C 75% Calm Calm 1.0 mph1.6 kmh 29.55 in1000.7 mb 0.00 in0.0 mm 0.00 in/hr0.0 mm/hr 0.02 in0.5 mm
05:30 PM 61.2°F16.2°C 54.3°F12.4°C 78% Calm Calm 1.0 mph1.6 kmh 29.55 in1000.7 mb 0.00 in0.0 mm 0.00 in/hr0.0 mm/hr 0.02 in0.5 mm
05:40 PM 61.3°F16.3°C 54.4°F12.4°C 78% 0.2 mph SSE0.3 kmh SSE 2.0 mph3.2 kmh 29.54 in1000.3 mb 0.00 in0.0 mm 0.00 in/hr0.0 mm/hr 0.02 in0.5 mm
05:50 PM 61.3°F16.3°C 54.0°F12.2°C 77% 0.1 mph SW0.2 kmh SW 1.0 mph1.6 kmh 29.54 in1000.3 mb 0.00 in0.0 mm 0.00 in/hr0.0 mm/hr 0.02 in0.5 mm
06:00 PM 61.4°F16.3°C 54.1°F12.3°C 77% 2.1 mph S3.4 kmh S 4.0 mph6.4 kmh 29.54 in1000.3 mb 0.00 in0.0 mm 0.00 in/hr0.0 mm/hr 0.02 in0.5 mm
06:10 PM 61.6°F16.4°C 54.3°F12.4°C 77% 1.7 mph SW2.7 kmh SW 2.0 mph3.2 kmh 29.54 in1000.3 mb 0.00 in0.0 mm 0.00 in/hr0.0 mm/hr 0.02 in0.5 mm
06:20 PM 62.0°F16.7°C 53.9°F12.2°C 75% 3.5 mph WSW5.6 kmh WSW 9.0 mph14.5 kmh 29.53 in1000.0 mb 0.00 in0.0 mm 0.00 in/hr0.0 mm/hr 0.02 in0.5 mm
06:30 PM 62.3°F16.8°C 53.9°F12.2°C 74% 1.3 mph SW2.1 kmh SW 4.0 mph6.4 kmh 29.52 in999.7 mb 0.00 in0.0 mm 0.00 in/hr0.0 mm/hr 0.02 in0.5 mm
06:40 PM 62.4°F16.9°C 53.6°F12.0°C 73% 2.5 mph SW4.0 kmh SW 7.0 mph11.3 kmh 29.53 in1000.0 mb 0.00 in0.0 mm 0.00 in/hr0.0 mm/hr 0.02 in0.5 mm
06:50 PM 62.3°F16.8°C 53.5°F11.9°C 73% 2.0 mph WSW3.2 kmh WSW 3.0 mph4.8 kmh 29.53 in1000.0 mb 0.00 in0.0 mm 0.00 in/hr0.0 mm/hr 0.02 in0.5 mm
07:00 PM 62.3°F16.8°C 53.1°F11.7°C 72% 4.4 mph SSE7.1 kmh SSE 7.0 mph11.3 kmh 29.53 in1000.0 mb 0.00 in0.0 mm 0.00 in/hr0.0 mm/hr 0.02 in0.5 mm
07:10 PM 62.3°F16.8°C 53.2°F11.8°C 72% 3.6 mph W5.8 kmh W 8.0 mph12.9 kmh 29.53 in1000.0 mb 0.00 in0.0 mm 0.00 in/hr0.0 mm/hr 0.02 in0.5 mm
07:20 PM 62.1°F16.7°C 53.7°F12.1°C 74% 4.7 mph SW7.6 kmh SW 7.0 mph11.3 kmh 29.53 in1000.0 mb 0.00 in0.0 mm 0.00 in/hr0.0 mm/hr 0.02 in0.5 mm
07:30 PM 61.7°F16.5°C 53.7°F12.1°C 75% Calm Calm 1.0 mph1.6 kmh 29.54 in1000.3 mb 0.00 in0.0 mm 0.00 in/hr0.0 mm/hr 0.02 in0.5 mm
07:40 PM 61.5°F16.4°C 53.8°F12.1°C 76% Calm Calm -- 29.54 in1000.3 mb 0.00 in0.0 mm 0.00 in/hr0.0 mm/hr 0.02 in0.5 mm
07:50 PM 61.0°F16.1°C 54.4°F12.4°C 79% 0.7 mph SSW1.1 kmh SSW 3.0 mph4.8 kmh 29.54 in1000.3 mb 0.01 in0.3 mm 0.06 in/hr1.5 mm/hr 0.03 in0.8 mm
08:00 PM 60.3°F15.7°C 53.4°F11.9°C 78% 2.0 mph SW3.2 kmh SW 2.0 mph3.2 kmh 29.54 in1000.3 mb 0.00 in0.0 mm 0.00 in/hr0.0 mm/hr 0.03 in0.8 mm
08:10 PM 60.0°F15.6°C 53.5°F11.9°C 79% 2.1 mph SW3.4 kmh SW 4.0 mph6.4 kmh 29.53 in1000.0 mb 0.00 in0.0 mm 0.00 in/hr0.0 mm/hr 0.03 in0.8 mm
08:20 PM 59.8°F15.4°C 53.9°F12.2°C 81% 2.5 mph SW4.0 kmh SW 5.0 mph8.0 kmh 29.54 in1000.3 mb 0.00 in0.0 mm 0.00 in/hr0.0 mm/hr 0.03 in0.8 mm
08:30 PM 59.6°F15.3°C 53.1°F11.7°C 79% 0.6 mph SSE1.0 kmh SSE 1.0 mph1.6 kmh 29.54 in1000.3 mb 0.00 in0.0 mm 0.00 in/hr0.0 mm/hr 0.03 in0.8 mm
08:40 PM 59.5°F15.3°C 53.3°F11.8°C 80% 1.4 mph SW2.3 kmh SW 3.0 mph4.8 kmh 29.55 in1000.7 mb 0.00 in0.0 mm 0.00 in/hr0.0 mm/hr 0.03 in0.8 mm
08:50 PM 59.4°F15.2°C 53.2°F11.8°C 80% 1.8 mph SW2.9 kmh SW 2.0 mph3.2 kmh 29.55 in1000.7 mb 0.00 in0.0 mm 0.00 in/hr0.0 mm/hr 0.03 in0.8 mm
09:00 PM 59.4°F15.2°C 53.2°F11.8°C 80% 2.5 mph SE4.0 kmh SE 4.0 mph6.4 kmh 29.54 in1000.3 mb 0.00 in0.0 mm 0.00 in/hr0.0 mm/hr 0.03 in0.8 mm
09:10 PM 59.1°F15.1°C 53.0°F11.7°C 80% 1.4 mph SW2.3 kmh SW 2.0 mph3.2 kmh 29.54 in1000.3 mb 0.00 in0.0 mm 0.00 in/hr0.0 mm/hr 0.03 in0.8 mm
09:20 PM 59.0°F15.0°C 52.8°F11.6°C 80% 3.1 mph SSE5.0 kmh SSE 4.0 mph6.4 kmh 29.54 in1000.3 mb 0.00 in0.0 mm 0.00 in/hr0.0 mm/hr 0.03 in0.8 mm
09:30 PM 59.2°F15.1°C 52.6°F11.4°C 79% 2.6 mph S4.2 kmh S 4.0 mph6.4 kmh 29.54 in1000.3 mb 0.00 in0.0 mm 0.00 in/hr0.0 mm/hr 0.03 in0.8 mm
09:40 PM 59.3°F15.2°C 52.8°F11.6°C 79% 1.0 mph SSW1.6 kmh SSW 4.0 mph6.4 kmh 29.54 in1000.3 mb 0.00 in0.0 mm 0.00 in/hr0.0 mm/hr 0.03 in0.8 mm
09:50 PM 59.3°F15.2°C 52.8°F11.6°C 79% 2.0 mph WSW3.2 kmh WSW 3.0 mph4.8 kmh 29.53 in1000.0 mb 0.00 in0.0 mm 0.00 in/hr0.0 mm/hr 0.03 in0.8 mm
10:00 PM 59.4°F15.2°C 52.9°F11.6°C 79% 2.8 mph SW4.5 kmh SW 4.0 mph6.4 kmh 29.53 in1000.0 mb 0.00 in0.0 mm 0.00 in/hr0.0 mm/hr 0.03 in0.8 mm
10:10 PM 59.3°F15.2°C 52.8°F11.6°C 79% 0.9 mph SSE1.4 kmh SSE 2.0 mph3.2 kmh 29.52 in999.7 mb 0.00 in0.0 mm 0.00 in/hr0.0 mm/hr 0.03 in0.8 mm
10:20 PM 59.3°F15.2°C 52.8°F11.6°C 79% 0.3 mph SW0.5 kmh SW 1.0 mph1.6 kmh 29.51 in999.3 mb 0.00 in0.0 mm 0.00 in/hr0.0 mm/hr 0.03 in0.8 mm
10:30 PM 59.1°F15.1°C 52.9°F11.6°C 80% 0.8 mph SW1.3 kmh SW 2.0 mph3.2 kmh 29.52 in999.7 mb 0.00 in0.0 mm 0.00 in/hr0.0 mm/hr 0.03 in0.8 mm
10:40 PM 59.1°F15.1°C 52.6°F11.4°C 79% 2.7 mph WSW4.3 kmh WSW 7.0 mph11.3 kmh 29.52 in999.7 mb 0.00 in0.0 mm 0.00 in/hr0.0 mm/hr 0.03 in0.8 mm
10:50 PM 59.1°F15.1°C 52.6°F11.4°C 79% 0.8 mph W1.3 kmh W 2.0 mph3.2 kmh 29.52 in999.7 mb 0.00 in0.0 mm 0.00 in/hr0.0 mm/hr 0.03 in0.8 mm
11:00 PM 58.6°F14.8°C 52.4°F11.3°C 80% Calm Calm 1.0 mph1.6 kmh 29.52 in999.7 mb 0.00 in0.0 mm 0.00 in/hr0.0 mm/hr 0.03 in0.8 mm
11:10 PM 57.6°F14.2°C 52.1°F11.2°C 82% 0.1 mph SW0.2 kmh SW 1.0 mph1.6 kmh 29.52 in999.7 mb 0.00 in0.0 mm 0.00 in/hr0.0 mm/hr 0.03 in0.8 mm
11:20 PM 56.8°F13.8°C 52.0°F11.1°C 84% Calm Calm 1.0 mph1.6 kmh 29.52 in999.7 mb 0.00 in0.0 mm 0.00 in/hr0.0 mm/hr 0.03 in0.8 mm
11:30 PM 57.0°F13.9°C 52.2°F11.2°C 84% 0.1 mph SW0.2 kmh SW 1.0 mph1.6 kmh 29.51 in999.3 mb 0.00 in0.0 mm 0.00 in/hr0.0 mm/hr 0.03 in0.8 mm
11:40 PM 56.7°F13.7°C 51.9°F11.1°C 84% Calm Calm 1.0 mph1.6 kmh 29.51 in999.3 mb 0.00 in0.0 mm 0.00 in/hr0.0 mm/hr 0.03 in0.8 mm
11:50 PM 56.6°F13.7°C 52.1°F11.2°C 85% Calm Calm 1.0 mph1.6 kmh 29.51 in999.3 mb 0.00 in0.0 mm 0.00 in/hr0.0 mm/hr 0.03 in0.8 mm